sensor_id;sensor_type;location;lat;lon;timestamp;P1;durP1;ratioP1;P2;durP2;ratioP2
37485;SDS011;23341;50.296;18.960;2023-08-01T00:02:46;4.32;;;3.40;;
37485;SDS011;23341;50.296;18.960;2023-08-01T00:07:52;7.43;;;3.45;;
37485;SDS011;23341;50.296;18.960;2023-08-01T00:12:56;5.22;;;3.50;;
37485;SDS011;23341;50.296;18.960;2023-08-01T00:18:00;7.20;;;3.97;;
37485;SDS011;23341;50.296;18.960;2023-08-01T00:23:05;4.50;;;3.22;;
37485;SDS011;23341;50.296;18.960;2023-08-01T00:28:09;5.28;;;3.35;;
37485;SDS011;23341;50.296;18.960;2023-08-01T00:33:12;6.20;;;3.78;;
37485;SDS011;23341;50.296;18.960;2023-08-01T00:38:18;4.63;;;3.08;;
37485;SDS011;23341;50.296;18.960;2023-08-01T00:43:22;7.53;;;4.50;;
37485;SDS011;23341;50.296;18.960;2023-08-01T00:48:26;5.18;;;2.92;;
37485;SDS011;23341;50.296;18.960;2023-08-01T00:53:32;4.93;;;3.00;;
37485;SDS011;23341;50.296;18.960;2023-08-01T00:58:37;5.53;;;3.15;;
37485;SDS011;23341;50.296;18.960;2023-08-01T01:03:41;4.10;;;3.08;;
37485;SDS011;23341;50.296;18.960;2023-08-01T01:08:49;7.20;;;2.80;;
37485;SDS011;23341;50.296;18.960;2023-08-01T01:13:53;4.25;;;3.38;;
37485;SDS011;23341;50.296;18.960;2023-08-01T01:18:56;4.10;;;2.97;;
37485;SDS011;23341;50.296;18.960;2023-08-01T01:24:02;4.80;;;2.97;;
37485;SDS011;23341;50.296;18.960;2023-08-01T01:29:07;5.95;;;3.33;;
37485;SDS011;23341;50.296;18.960;2023-08-01T01:34:13;5.15;;;2.72;;
37485;SDS011;23341;50.296;18.960;2023-08-01T01:39:18;2.85;;;2.58;;
37485;SDS011;23341;50.296;18.960;2023-08-01T01:44:22;2.97;;;2.40;;
37485;SDS011;23341;50.296;18.960;2023-08-01T01:49:26;4.45;;;2.88;;
37485;SDS011;23341;50.296;18.960;2023-08-01T01:54:31;4.18;;;2.88;;
37485;SDS011;23341;50.296;18.960;2023-08-01T01:59:35;5.45;;;3.00;;
37485;SDS011;23341;50.296;18.960;2023-08-01T02:04:39;9.45;;;2.85;;
37485;SDS011;23341;50.296;18.960;2023-08-01T02:09:44;5.53;;;2.92;;
37485;SDS011;23341;50.296;18.960;2023-08-01T02:14:48;5.50;;;3.78;;
37485;SDS011;23341;50.296;18.960;2023-08-01T02:19:52;10.65;;;3.15;;
37485;SDS011;23341;50.296;18.960;2023-08-01T02:24:57;5.30;;;3.00;;
37485;SDS011;23341;50.296;18.960;2023-08-01T02:30:01;6.40;;;3.22;;
37485;SDS011;23341;50.296;18.960;2023-08-01T02:35:07;4.07;;;2.55;;
37485;SDS011;23341;50.296;18.960;2023-08-01T02:40:12;4.35;;;3.30;;
37485;SDS011;23341;50.296;18.960;2023-08-01T02:45:17;4.82;;;2.97;;
37485;SDS011;23341;50.296;18.960;2023-08-01T02:50:21;7.35;;;2.90;;
37485;SDS011;23341;50.296;18.960;2023-08-01T02:55:26;3.67;;;3.00;;
37485;SDS011;23341;50.296;18.960;2023-08-01T03:00:29;5.20;;;3.00;;
37485;SDS011;23341;50.296;18.960;2023-08-01T03:11:04;3.80;;;2.23;;
37485;SDS011;23341;50.296;18.960;2023-08-01T03:16:09;6.53;;;3.55;;
37485;SDS011;23341;50.296;18.960;2023-08-01T03:21:13;4.82;;;3.10;;
37485;SDS011;23341;50.296;18.960;2023-08-01T03:26:18;5.05;;;2.72;;
37485;SDS011;23341;50.296;18.960;2023-08-01T03:31:22;8.75;;;2.55;;
37485;SDS011;23341;50.296;18.960;2023-08-01T03:36:28;5.82;;;3.08;;
37485;SDS011;23341;50.296;18.960;2023-08-01T03:41:33;4.70;;;2.50;;
37485;SDS011;23341;50.296;18.960;2023-08-01T03:46:37;3.90;;;2.22;;
37485;SDS011;23341;50.296;18.960;2023-08-01T03:51:41;5.13;;;2.38;;
37485;SDS011;23341;50.296;18.960;2023-08-01T03:56:47;7.60;;;2.28;;
37485;SDS011;23341;50.296;18.960;2023-08-01T04:01:51;3.58;;;2.10;;
37485;SDS011;23341;50.296;18.960;2023-08-01T04:06:56;4.68;;;2.17;;
37485;SDS011;23341;50.296;18.960;2023-08-01T04:12:01;4.43;;;2.40;;
37485;SDS011;23341;50.296;18.960;2023-08-01T04:17:05;7.32;;;3.25;;
37485;SDS011;23341;50.296;18.960;2023-08-01T04:22:09;7.65;;;1.95;;
37485;SDS011;23341;50.296;18.960;2023-08-01T04:27:14;3.35;;;2.15;;
37485;SDS011;23341;50.296;18.960;2023-08-01T04:32:18;5.40;;;1.90;;
37485;SDS011;23341;50.296;18.960;2023-08-01T04:37:21;5.43;;;2.30;;
37485;SDS011;23341;50.296;18.960;2023-08-01T04:42:27;3.90;;;2.28;;
37485;SDS011;23341;50.296;18.960;2023-08-01T04:47:31;3.38;;;2.35;;
37485;SDS011;23341;50.296;18.960;2023-08-01T04:52:34;4.05;;;2.33;;
37485;SDS011;23341;50.296;18.960;2023-08-01T04:57:39;4.20;;;2.65;;
37485;SDS011;23341;50.296;18.960;2023-08-01T05:02:43;3.72;;;2.30;;
37485;SDS011;23341;50.296;18.960;2023-08-01T05:07:47;4.72;;;2.35;;
37485;SDS011;23341;50.296;18.960;2023-08-01T05:12:52;5.72;;;2.55;;
37485;SDS011;23341;50.296;18.960;2023-08-01T05:17:56;7.53;;;3.28;;
37485;SDS011;23341;50.296;18.960;2023-08-01T05:23:00;9.18;;;2.70;;
37485;SDS011;23341;50.296;18.960;2023-08-01T05:28:05;6.55;;;4.47;;
37485;SDS011;23341;50.296;18.960;2023-08-01T05:33:08;6.85;;;2.97;;
37485;SDS011;23341;50.296;18.960;2023-08-01T05:38:12;8.15;;;3.47;;
37485;SDS011;23341;50.296;18.960;2023-08-01T05:43:17;3.47;;;2.75;;
37485;SDS011;23341;50.296;18.960;2023-08-01T05:48:21;6.50;;;2.78;;
37485;SDS011;23341;50.296;18.960;2023-08-01T05:53:25;9.00;;;3.63;;
37485;SDS011;23341;50.296;18.960;2023-08-01T05:58:30;7.97;;;2.85;;
37485;SDS011;23341;50.296;18.960;2023-08-01T06:03:34;9.02;;;3.15;;
37485;SDS011;23341;50.296;18.960;2023-08-01T06:08:38;5.00;;;3.17;;
37485;SDS011;23341;50.296;18.960;2023-08-01T06:13:43;5.35;;;2.63;;
37485;SDS011;23341;50.296;18.960;2023-08-01T06:18:47;8.98;;;3.00;;
37485;SDS011;23341;50.296;18.960;2023-08-01T06:23:51;7.32;;;3.97;;
37485;SDS011;23341;50.296;18.960;2023-08-01T06:28:56;5.85;;;3.13;;
37485;SDS011;23341;50.296;18.960;2023-08-01T06:33:59;6.88;;;3.58;;
37485;SDS011;23341;50.296;18.960;2023-08-01T06:39:03;6.18;;;3.42;;
37485;SDS011;23341;50.296;18.960;2023-08-01T06:44:09;4.15;;;2.85;;
37485;SDS011;23341;50.296;18.960;2023-08-01T06:49:13;6.50;;;3.15;;
37485;SDS011;23341;50.296;18.960;2023-08-01T06:54:16;3.15;;;2.85;;
37485;SDS011;23341;50.296;18.960;2023-08-01T06:59:21;6.47;;;2.72;;
37485;SDS011;23341;50.296;18.960;2023-08-01T07:04:25;2.97;;;2.33;;
37485;SDS011;23341;50.296;18.960;2023-08-01T07:09:29;9.25;;;3.15;;
37485;SDS011;23341;50.296;18.960;2023-08-01T07:14:35;3.38;;;2.88;;
37485;SDS011;23341;50.296;18.960;2023-08-01T07:19:39;4.80;;;2.72;;
37485;SDS011;23341;50.296;18.960;2023-08-01T07:24:43;5.68;;;2.55;;
37485;SDS011;23341;50.296;18.960;2023-08-01T07:29:48;5.45;;;2.47;;
37485;SDS011;23341;50.296;18.960;2023-08-01T07:34:52;4.53;;;3.42;;
37485;SDS011;23341;50.296;18.960;2023-08-01T07:39:56;4.57;;;2.50;;
37485;SDS011;23341;50.296;18.960;2023-08-01T07:45:01;4.60;;;2.65;;
37485;SDS011;23341;50.296;18.960;2023-08-01T07:50:06;4.97;;;2.65;;
37485;SDS011;23341;50.296;18.960;2023-08-01T07:55:10;4.35;;;2.67;;
37485;SDS011;23341;50.296;18.960;2023-08-01T08:00:15;4.30;;;3.17;;
37485;SDS011;23341;50.296;18.960;2023-08-01T08:05:19;4.25;;;3.45;;
37485;SDS011;23341;50.296;18.960;2023-08-01T08:10:23;4.18;;;3.28;;
37485;SDS011;23341;50.296;18.960;2023-08-01T08:15:28;6.22;;;3.83;;
37485;SDS011;23341;50.296;18.960;2023-08-01T08:20:40;5.22;;;4.28;;
37485;SDS011;23341;50.296;18.960;2023-08-01T08:25:45;6.13;;;3.83;;
37485;SDS011;23341;50.296;18.960;2023-08-01T08:30:50;4.70;;;3.20;;
37485;SDS011;23341;50.296;18.960;2023-08-01T08:35:54;5.57;;;4.13;;
37485;SDS011;23341;50.296;18.960;2023-08-01T08:41:08;6.53;;;3.45;;
37485;SDS011;23341;50.296;18.960;2023-08-01T08:46:14;4.53;;;3.78;;
37485;SDS011;23341;50.296;18.960;2023-08-01T08:51:19;5.25;;;3.63;;
37485;SDS011;23341;50.296;18.960;2023-08-01T08:56:24;5.07;;;3.20;;
37485;SDS011;23341;50.296;18.960;2023-08-01T09:01:30;5.63;;;3.60;;
37485;SDS011;23341;50.296;18.960;2023-08-01T09:06:37;6.13;;;3.03;;
37485;SDS011;23341;50.296;18.960;2023-08-01T09:11:49;4.00;;;3.58;;
37485;SDS011;23341;50.296;18.960;2023-08-01T09:16:55;9.02;;;3.97;;
37485;SDS011;23341;50.296;18.960;2023-08-01T09:21:59;6.15;;;3.53;;
37485;SDS011;23341;50.296;18.960;2023-08-01T09:27:03;8.45;;;4.43;;
37485;SDS011;23341;50.296;18.960;2023-08-01T09:32:13;5.25;;;4.10;;
37485;SDS011;23341;50.296;18.960;2023-08-01T09:42:24;8.73;;;5.30;;
37485;SDS011;23341;50.296;18.960;2023-08-01T09:47:36;6.55;;;4.53;;
37485;SDS011;23341;50.296;18.960;2023-08-01T09:52:40;6.30;;;5.70;;
37485;SDS011;23341;50.296;18.960;2023-08-01T09:57:44;6.07;;;4.35;;
37485;SDS011;23341;50.296;18.960;2023-08-01T10:02:53;6.60;;;4.78;;
37485;SDS011;23341;50.296;18.960;2023-08-01T10:08:02;11.05;;;4.80;;
37485;SDS011;23341;50.296;18.960;2023-08-01T10:13:07;9.23;;;5.07;;
37485;SDS011;23341;50.296;18.960;2023-08-01T10:18:13;5.03;;;4.20;;
37485;SDS011;23341;50.296;18.960;2023-08-01T10:23:18;5.32;;;4.20;;
37485;SDS011;23341;50.296;18.960;2023-08-01T10:28:30;6.53;;;4.32;;
37485;SDS011;23341;50.296;18.960;2023-08-01T10:33:36;15.05;;;5.38;;
37485;SDS011;23341;50.296;18.960;2023-08-01T10:38:44;4.68;;;3.80;;
37485;SDS011;23341;50.296;18.960;2023-08-01T10:43:50;4.57;;;3.75;;
37485;SDS011;23341;50.296;18.960;2023-08-01T10:48:55;8.10;;;3.63;;
37485;SDS011;23341;50.296;18.960;2023-08-01T10:53:58;8.30;;;4.05;;
37485;SDS011;23341;50.296;18.960;2023-08-01T10:59:04;5.97;;;3.80;;
37485;SDS011;23341;50.296;18.960;2023-08-01T11:04:14;5.72;;;3.75;;
37485;SDS011;23341;50.296;18.960;2023-08-01T11:14:23;6.50;;;4.18;;
37485;SDS011;23341;50.296;18.960;2023-08-01T11:19:29;5.50;;;3.88;;
37485;SDS011;23341;50.296;18.960;2023-08-01T11:24:34;4.57;;;4.05;;
37485;SDS011;23341;50.296;18.960;2023-08-01T11:29:38;4.40;;;4.00;;
37485;SDS011;23341;50.296;18.960;2023-08-01T11:34:43;5.80;;;4.35;;
37485;SDS011;23341;50.296;18.960;2023-08-01T11:39:51;5.13;;;3.97;;
37485;SDS011;23341;50.296;18.960;2023-08-01T11:45:06;10.00;;;5.28;;
37485;SDS011;23341;50.296;18.960;2023-08-01T11:50:12;5.72;;;5.18;;
37485;SDS011;23341;50.296;18.960;2023-08-01T11:55:20;5.00;;;4.57;;
37485;SDS011;23341;50.296;18.960;2023-08-01T12:00:26;6.97;;;5.45;;
37485;SDS011;23341;50.296;18.960;2023-08-01T12:05:32;6.63;;;5.55;;
37485;SDS011;23341;50.296;18.960;2023-08-01T12:10:37;5.50;;;5.00;;
37485;SDS011;23341;50.296;18.960;2023-08-01T12:15:41;7.03;;;5.78;;
37485;SDS011;23341;50.296;18.960;2023-08-01T12:20:46;6.25;;;5.68;;
37485;SDS011;23341;50.296;18.960;2023-08-01T12:25:50;5.75;;;4.75;;
37485;SDS011;23341;50.296;18.960;2023-08-01T12:30:54;7.63;;;4.90;;
37485;SDS011;23341;50.296;18.960;2023-08-01T12:36:03;5.68;;;4.95;;
37485;SDS011;23341;50.296;18.960;2023-08-01T12:41:07;5.82;;;5.22;;
37485;SDS011;23341;50.296;18.960;2023-08-01T12:46:11;6.60;;;5.28;;
37485;SDS011;23341;50.296;18.960;2023-08-01T12:51:16;5.15;;;4.65;;
37485;SDS011;23341;50.296;18.960;2023-08-01T12:56:20;7.22;;;4.72;;
37485;SDS011;23341;50.296;18.960;2023-08-01T13:01:24;8.50;;;5.32;;
37485;SDS011;23341;50.296;18.960;2023-08-01T13:06:30;5.00;;;4.55;;
37485;SDS011;23341;50.296;18.960;2023-08-01T13:11:33;8.35;;;4.45;;
37485;SDS011;23341;50.296;18.960;2023-08-01T13:16:37;7.22;;;4.13;;
37485;SDS011;23341;50.296;18.960;2023-08-01T13:21:43;6.88;;;5.20;;
37485;SDS011;23341;50.296;18.960;2023-08-01T13:26:47;5.22;;;3.90;;
37485;SDS011;23341;50.296;18.960;2023-08-01T13:31:51;5.53;;;4.70;;
37485;SDS011;23341;50.296;18.960;2023-08-01T13:36:56;6.63;;;4.00;;
37485;SDS011;23341;50.296;18.960;2023-08-01T13:41:59;5.18;;;4.22;;
37485;SDS011;23341;50.296;18.960;2023-08-01T13:47:03;7.13;;;4.88;;
37485;SDS011;23341;50.296;18.960;2023-08-01T13:52:09;9.73;;;5.28;;
37485;SDS011;23341;50.296;18.960;2023-08-01T13:57:12;7.15;;;4.80;;
37485;SDS011;23341;50.296;18.960;2023-08-01T14:02:16;6.35;;;5.03;;
37485;SDS011;23341;50.296;18.960;2023-08-01T14:07:21;5.78;;;5.18;;
37485;SDS011;23341;50.296;18.960;2023-08-01T14:12:25;5.22;;;4.50;;
37485;SDS011;23341;50.296;18.960;2023-08-01T14:17:29;5.75;;;4.90;;
37485;SDS011;23341;50.296;18.960;2023-08-01T14:22:34;6.32;;;4.88;;
37485;SDS011;23341;50.296;18.960;2023-08-01T14:27:37;5.95;;;5.20;;
37485;SDS011;23341;50.296;18.960;2023-08-01T14:32:41;6.35;;;4.45;;
37485;SDS011;23341;50.296;18.960;2023-08-01T14:37:46;6.75;;;4.35;;
37485;SDS011;23341;50.296;18.960;2023-08-01T14:42:51;4.25;;;3.85;;
37485;SDS011;23341;50.296;18.960;2023-08-01T14:47:54;6.53;;;4.25;;
37485;SDS011;23341;50.296;18.960;2023-08-01T14:53:00;4.35;;;3.95;;
37485;SDS011;23341;50.296;18.960;2023-08-01T14:58:05;6.40;;;4.25;;
37485;SDS011;23341;50.296;18.960;2023-08-01T15:03:08;6.57;;;4.10;;
37485;SDS011;23341;50.296;18.960;2023-08-01T15:08:14;4.05;;;3.40;;
37485;SDS011;23341;50.296;18.960;2023-08-01T15:13:18;3.55;;;3.25;;
37485;SDS011;23341;50.296;18.960;2023-08-01T15:18:21;3.67;;;3.33;;
37485;SDS011;23341;50.296;18.960;2023-08-01T15:23:26;4.35;;;3.63;;
37485;SDS011;23341;50.296;18.960;2023-08-01T15:28:30;4.28;;;3.25;;
37485;SDS011;23341;50.296;18.960;2023-08-01T15:33:35;4.35;;;3.95;;
37485;SDS011;23341;50.296;18.960;2023-08-01T15:38:41;4.70;;;3.50;;
37485;SDS011;23341;50.296;18.960;2023-08-01T15:43:44;5.03;;;3.70;;
37485;SDS011;23341;50.296;18.960;2023-08-01T15:48:48;4.85;;;3.40;;
37485;SDS011;23341;50.296;18.960;2023-08-01T15:53:53;4.43;;;3.50;;
37485;SDS011;23341;50.296;18.960;2023-08-01T15:58:57;3.33;;;3.03;;
37485;SDS011;23341;50.296;18.960;2023-08-01T16:04:02;3.92;;;3.47;;
37485;SDS011;23341;50.296;18.960;2023-08-01T16:09:07;4.47;;;3.20;;
37485;SDS011;23341;50.296;18.960;2023-08-01T16:14:11;3.70;;;3.30;;
37485;SDS011;23341;50.296;18.960;2023-08-01T16:19:18;3.97;;;3.67;;
37485;SDS011;23341;50.296;18.960;2023-08-01T16:24:23;3.60;;;3.30;;
37485;SDS011;23341;50.296;18.960;2023-08-01T16:29:27;6.80;;;4.22;;
37485;SDS011;23341;50.296;18.960;2023-08-01T16:34:31;5.43;;;2.88;;
37485;SDS011;23341;50.296;18.960;2023-08-01T16:39:37;4.10;;;3.28;;
37485;SDS011;23341;50.296;18.960;2023-08-01T16:44:41;6.45;;;3.15;;
37485;SDS011;23341;50.296;18.960;2023-08-01T16:49:45;3.13;;;2.83;;
37485;SDS011;23341;50.296;18.960;2023-08-01T16:54:51;7.30;;;2.92;;
37485;SDS011;23341;50.296;18.960;2023-08-01T16:59:55;3.28;;;2.97;;
37485;SDS011;23341;50.296;18.960;2023-08-01T17:04:59;4.45;;;3.25;;
37485;SDS011;23341;50.296;18.960;2023-08-01T17:10:05;3.88;;;3.58;;
37485;SDS011;23341;50.296;18.960;2023-08-01T17:15:09;6.25;;;3.60;;
37485;SDS011;23341;50.296;18.960;2023-08-01T17:20:13;4.35;;;3.00;;
37485;SDS011;23341;50.296;18.960;2023-08-01T17:25:18;3.35;;;3.05;;
37485;SDS011;23341;50.296;18.960;2023-08-01T17:30:22;3.65;;;3.35;;
37485;SDS011;23341;50.296;18.960;2023-08-01T17:35:26;4.03;;;3.60;;
37485;SDS011;23341;50.296;18.960;2023-08-01T17:40:31;5.03;;;3.47;;
37485;SDS011;23341;50.296;18.960;2023-08-01T17:45:35;5.43;;;4.78;;
37485;SDS011;23341;50.296;18.960;2023-08-01T17:50:40;4.78;;;3.90;;
37485;SDS011;23341;50.296;18.960;2023-08-01T17:55:46;4.40;;;4.00;;
37485;SDS011;23341;50.296;18.960;2023-08-01T18:00:50;4.75;;;3.47;;
37485;SDS011;23341;50.296;18.960;2023-08-01T18:06:01;6.22;;;4.03;;
37485;SDS011;23341;50.296;18.960;2023-08-01T18:11:10;7.10;;;4.57;;
37485;SDS011;23341;50.296;18.960;2023-08-01T18:16:17;7.18;;;3.90;;
37485;SDS011;23341;50.296;18.960;2023-08-01T18:21:22;5.28;;;4.40;;
37485;SDS011;23341;50.296;18.960;2023-08-01T18:26:27;4.00;;;3.60;;
37485;SDS011;23341;50.296;18.960;2023-08-01T18:31:31;4.30;;;3.90;;
37485;SDS011;23341;50.296;18.960;2023-08-01T18:36:35;4.50;;;4.00;;
37485;SDS011;23341;50.296;18.960;2023-08-01T18:41:40;6.70;;;4.03;;
37485;SDS011;23341;50.296;18.960;2023-08-01T18:46:44;4.68;;;3.42;;
37485;SDS011;23341;50.296;18.960;2023-08-01T18:51:47;6.35;;;4.07;;
37485;SDS011;23341;50.296;18.960;2023-08-01T18:56:52;8.57;;;4.07;;
37485;SDS011;23341;50.296;18.960;2023-08-01T19:01:56;5.28;;;4.38;;
37485;SDS011;23341;50.296;18.960;2023-08-01T19:07:00;5.93;;;3.97;;
37485;SDS011;23341;50.296;18.960;2023-08-01T19:12:06;8.77;;;5.80;;
37485;SDS011;23341;50.296;18.960;2023-08-01T19:17:10;7.88;;;4.90;;
37485;SDS011;23341;50.296;18.960;2023-08-01T19:22:14;6.00;;;3.90;;
37485;SDS011;23341;50.296;18.960;2023-08-01T19:27:19;6.78;;;3.63;;
37485;SDS011;23341;50.296;18.960;2023-08-01T19:32:23;5.28;;;4.03;;
37485;SDS011;23341;50.296;18.960;2023-08-01T19:37:27;5.38;;;3.72;;
37485;SDS011;23341;50.296;18.960;2023-08-01T19:42:32;4.65;;;3.67;;
37485;SDS011;23341;50.296;18.960;2023-08-01T19:47:36;4.72;;;4.20;;
37485;SDS011;23341;50.296;18.960;2023-08-01T19:52:39;6.43;;;4.50;;
37485;SDS011;23341;50.296;18.960;2023-08-01T19:57:45;5.22;;;4.72;;
37485;SDS011;23341;50.296;18.960;2023-08-01T20:02:49;7.10;;;5.43;;
37485;SDS011;23341;50.296;18.960;2023-08-01T20:07:53;5.65;;;3.75;;
37485;SDS011;23341;50.296;18.960;2023-08-01T20:12:58;4.03;;;3.50;;
37485;SDS011;23341;50.296;18.960;2023-08-01T20:18:02;4.80;;;4.32;;
37485;SDS011;23341;50.296;18.960;2023-08-01T20:23:06;13.07;;;6.18;;
37485;SDS011;23341;50.296;18.960;2023-08-01T20:28:11;5.88;;;4.35;;
37485;SDS011;23341;50.296;18.960;2023-08-01T20:33:15;7.57;;;4.07;;
37485;SDS011;23341;50.296;18.960;2023-08-01T20:38:19;5.30;;;4.75;;
37485;SDS011;23341;50.296;18.960;2023-08-01T20:43:26;6.07;;;5.47;;
37485;SDS011;23341;50.296;18.960;2023-08-01T20:48:30;5.47;;;4.00;;
37485;SDS011;23341;50.296;18.960;2023-08-01T20:53:34;3.67;;;3.35;;
37485;SDS011;23341;50.296;18.960;2023-08-01T20:58:39;5.00;;;3.65;;
37485;SDS011;23341;50.296;18.960;2023-08-01T21:03:43;4.03;;;3.63;;
37485;SDS011;23341;50.296;18.960;2023-08-01T21:08:47;4.10;;;3.70;;
37485;SDS011;23341;50.296;18.960;2023-08-01T21:14:07;6.53;;;3.42;;
37485;SDS011;23341;50.296;18.960;2023-08-01T21:19:11;3.30;;;3.00;;
37485;SDS011;23341;50.296;18.960;2023-08-01T21:24:15;3.95;;;3.13;;
37485;SDS011;23341;50.296;18.960;2023-08-01T21:29:20;5.80;;;3.83;;
37485;SDS011;23341;50.296;18.960;2023-08-01T21:34:23;4.35;;;3.90;;
37485;SDS011;23341;50.296;18.960;2023-08-01T21:39:27;4.68;;;4.28;;
37485;SDS011;23341;50.296;18.960;2023-08-01T21:44:33;6.57;;;4.50;;
37485;SDS011;23341;50.296;18.960;2023-08-01T21:49:37;6.07;;;5.00;;
37485;SDS011;23341;50.296;18.960;2023-08-01T21:54:41;7.47;;;4.60;;
37485;SDS011;23341;50.296;18.960;2023-08-01T21:59:46;7.53;;;5.88;;
37485;SDS011;23341;50.296;18.960;2023-08-01T22:04:49;7.10;;;6.35;;
37485;SDS011;23341;50.296;18.960;2023-08-01T22:09:53;8.75;;;5.88;;
37485;SDS011;23341;50.296;18.960;2023-08-01T22:14:58;7.80;;;5.88;;
37485;SDS011;23341;50.296;18.960;2023-08-01T22:20:02;7.97;;;6.25;;
37485;SDS011;23341;50.296;18.960;2023-08-01T22:25:07;9.07;;;6.00;;
37485;SDS011;23341;50.296;18.960;2023-08-01T22:30:13;7.75;;;5.32;;
37485;SDS011;23341;50.296;18.960;2023-08-01T22:35:17;6.05;;;5.40;;
37485;SDS011;23341;50.296;18.960;2023-08-01T22:40:21;6.28;;;4.57;;
37485;SDS011;23341;50.296;18.960;2023-08-01T22:45:26;7.35;;;5.60;;
37485;SDS011;23341;50.296;18.960;2023-08-01T22:50:31;6.97;;;5.45;;
37485;SDS011;23341;50.296;18.960;2023-08-01T22:55:34;6.05;;;4.82;;
37485;SDS011;23341;50.296;18.960;2023-08-01T23:00:41;9.45;;;5.20;;
37485;SDS011;23341;50.296;18.960;2023-08-01T23:05:45;5.65;;;5.15;;
37485;SDS011;23341;50.296;18.960;2023-08-01T23:10:49;6.47;;;5.10;;
37485;SDS011;23341;50.296;18.960;2023-08-01T23:15:54;8.13;;;5.13;;
37485;SDS011;23341;50.296;18.960;2023-08-01T23:20:58;7.85;;;4.72;;
37485;SDS011;23341;50.296;18.960;2023-08-01T23:26:04;7.47;;;4.90;;
37485;SDS011;23341;50.296;18.960;2023-08-01T23:31:10;8.65;;;5.35;;
37485;SDS011;23341;50.296;18.960;2023-08-01T23:36:14;5.75;;;5.15;;
37485;SDS011;23341;50.296;18.960;2023-08-01T23:41:19;8.90;;;6.20;;
37485;SDS011;23341;50.296;18.960;2023-08-01T23:46:24;9.13;;;5.75;;
37485;SDS011;23341;50.296;18.960;2023-08-01T23:51:28;8.27;;;4.95;;
37485;SDS011;23341;50.296;18.960;2023-08-01T23:56:32;9.38;;;5.00;;
